Time;durP1;ratioP1;P1;durP2;ratioP2;P2;SDS_P1;SDS_P2;PMS_P1;PMS_P2;Temp;Humidity;BMP_temperature;BMP_pressure;BME280_temperature;BME280_humidity;BME280_pressure;Samples;Min_cycle;Max_cycle;Signal;HPM_P1;HPM_P2
2021/07/24 00:04:10;;;;;;;20.50;13.38;;;;;;;20.76;64.08;100714.55;4925877;59;21181;-76
2021/07/24 00:09:16;;;;;;;26.62;15.38;;;;;;;20.74;63.79;100712.54;5017561;58;21097;-84
2021/07/24 00:14:22;;;;;;;17.85;10.82;;;;;;;20.66;63.66;100715.60;5014400;59;21612;-82
2021/07/24 00:19:28;;;;;;;20.75;12.50;;;;;;;20.44;63.57;100726.36;5073436;58;21186;-82
2021/07/24 00:24:34;;;;;;;22.30;11.53;;;;;;;20.23;64.35;100716.20;5075354;57;21203;-78
2021/07/24 00:29:40;;;;;;;20.27;12.18;;;;;;;20.20;64.44;100726.78;5002154;59;21506;-78
2021/07/24 00:34:46;;;;;;;18.10;12.73;;;;;;;20.08;64.65;100717.45;5014089;58;21199;-85
2021/07/24 00:39:51;;;;;;;21.10;14.00;;;;;;;20.14;65.02;100706.02;4920153;59;21225;-84
2021/07/24 00:45:03;;;;;;;28.35;14.25;;;;;;;20.21;65.02;100707.48;5014478;58;21528;-80
2021/07/24 00:50:15;;;;;;;26.37;13.75;;;;;;;20.12;64.78;100707.20;4923251;59;21196;-88
2021/07/24 00:55:21;;;;;;;19.73;11.30;;;;;;;20.16;65.19;100713.41;5014739;58;21187;-82
2021/07/24 01:00:27;;;;;;;25.52;12.18;;;;;;;19.88;64.31;100713.52;4921520;59;22072;-79
2021/07/24 01:05:33;;;;;;;17.60;11.85;;;;;;;19.50;64.80;100716.02;5014616;58;22126;-86
2021/07/24 01:10:39;;;;;;;18.27;12.40;;;;;;;19.42;65.73;100716.48;5096708;57;21145;-76
2021/07/24 01:15:49;;;;;;;23.57;13.58;;;;;;;19.44;66.25;100713.97;5136935;57;21192;-80
2021/07/24 01:20:59;;;;;;;16.65;11.70;;;;;;;19.60;66.48;100706.41;5150752;57;21185;-75
2021/07/24 01:26:07;;;;;;;20.77;12.75;;;;;;;19.58;66.33;100703.06;5135074;57;21157;-77
2021/07/24 01:31:14;;;;;;;18.02;11.73;;;;;;;19.53;66.41;100698.74;5142830;57;21107;-77
2021/07/24 01:36:21;;;;;;;20.88;12.68;;;;;;;19.48;66.70;100695.70;4996575;59;21121;-84
2021/07/24 01:41:28;;;;;;;21.12;12.75;;;;;;;19.27;66.51;100696.23;4993194;59;21167;-83
2021/07/24 01:46:34;;;;;;;23.25;13.68;;;;;;;19.16;67.00;100690.73;4986239;59;21852;-81
2021/07/24 01:57:17;;;;;;;30.27;13.62;;;;;;;19.24;67.56;100692.59;5135324;57;21154;-84
2021/07/24 02:02:27;;;;;;;;;;;;;;;19.33;67.70;100687.02;5145736;57;21508;-77
2021/07/24 02:07:36;;;;;;;26.30;12.35;;;;;;;19.45;67.59;100696.88;5000101;59;20187;-86
2021/07/24 02:12:42;;;;;;;20.77;13.10;;;;;;;19.45;67.24;100690.67;5052467;57;21153;-81
2021/07/24 02:17:49;;;;;;;20.88;13.08;;;;;;;19.44;67.15;100691.67;5057307;58;21221;-77
2021/07/24 02:22:57;;;;;;;17.02;12.15;;;;;;;19.39;67.13;100694.89;4915147;60;21197;-74
2021/07/24 02:28:03;;;;;;;20.77;12.73;;;;;;;19.21;66.79;100683.03;4987903;58;21223;-79
2021/07/24 02:33:08;;;;;;;18.67;11.70;;;;;;;18.95;67.24;100681.04;4919114;59;21249;-84
2021/07/24 02:38:14;;;;;;;21.45;11.85;;;;;;;18.74;67.81;100674.87;4988217;58;21174;-88
2021/07/24 02:43:21;;;;;;;24.87;12.28;;;;;;;18.61;68.49;100675.38;4984167;58;21145;-80
2021/07/24 02:48:26;;;;;;;16.30;12.25;;;;;;;18.45;68.85;100675.34;5022654;58;21178;-82
2021/07/24 02:53:40;;;;;;;23.40;13.57;;;;;;;18.28;69.37;100671.80;4987130;57;21623;-77
2021/07/24 02:58:46;;;;;;;20.72;12.43;;;;;;;18.31;70.13;100675.16;4939627;58;21196;-80
2021/07/24 03:03:52;;;;;;;20.82;12.58;;;;;;;18.42;70.08;100674.83;5049136;57;22055;-78
2021/07/24 03:08:59;;;;;;;20.95;12.78;;;;;;;18.60;70.09;100684.92;4957888;58;21185;-80
2021/07/24 03:14:05;;;;;;;25.77;12.23;;;;;;;18.74;70.02;100683.41;5010649;59;21231;-82
2021/07/24 03:19:11;;;;;;;28.33;12.40;;;;;;;18.68;69.46;100681.39;4999398;58;21144;-77
2021/07/24 03:24:17;;;;;;;15.83;11.97;;;;;;;18.60;69.77;100685.77;4995205;58;21192;-81
2021/07/24 03:29:23;;;;;;;16.20;11.48;;;;;;;18.60;70.15;100684.42;4955796;59;21108;-75
2021/07/24 03:34:29;;;;;;;20.05;13.78;;;;;;;18.62;70.10;100678.91;4947293;58;21248;-80
2021/07/24 03:39:34;;;;;;;23.90;13.38;;;;;;;18.52;70.35;100679.52;4918925;59;21196;-76
2021/07/24 03:44:40;;;;;;;24.33;13.93;;;;;;;18.51;70.74;100687.21;4911142;59;21114;-78
2021/07/24 03:49:46;;;;;;;19.65;12.95;;;;;;;18.49;71.05;100694.07;4861292;60;21497;-78
2021/07/24 03:54:52;;;;;;;19.03;12.80;;;;;;;18.52;71.14;100696.42;4837916;60;21137;-82
2021/07/24 04:00:01;;;;;;;20.15;13.60;;;;;;;18.48;71.38;100698.28;4843347;60;21239;-83
2021/07/24 04:05:06;;;;;;;23.63;12.27;;;;;;;18.49;71.65;100693.23;4841817;60;21144;-84
2021/07/24 04:10:13;;;;;;;21.30;12.60;;;;;;;18.55;72.06;100693.92;4881148;59;21119;-82
2021/07/24 04:15:20;;;;;;;18.23;12.47;;;;;;;18.57;72.18;100697.27;5032196;58;21174;-77
2021/07/24 04:20:25;;;;;;;21.60;14.77;;;;;;;18.53;72.39;100690.56;4953033;59;21608;-83
2021/07/24 04:25:31;;;;;;;23.67;15.72;;;;;;;18.49;72.66;100688.71;5027244;58;21218;-77
2021/07/24 04:30:36;;;;;;;25.93;14.70;;;;;;;18.60;73.11;100692.46;4943719;59;21173;-79
2021/07/24 04:35:49;;;;;;;19.50;14.40;;;;;;;18.74;73.00;100686.09;5043021;58;21558;-77
2021/07/24 04:40:55;;;;;;;27.90;15.28;;;;;;;18.91;73.00;100689.95;4963486;59;21155;-80
2021/07/24 04:46:01;;;;;;;25.15;16.23;;;;;;;19.05;73.06;100683.56;5027168;58;21245;-87
2021/07/24 04:51:07;;;;;;;24.23;16.30;;;;;;;19.13;72.90;100681.69;4915270;60;21217;-86
2021/07/24 04:56:13;;;;;;;20.77;16.15;;;;;;;19.19;73.00;100684.20;5003513;58;21176;-87
2021/07/24 05:01:21;;;;;;;26.00;15.65;;;;;;;19.22;72.97;100682.53;4965344;59;21126;-82
2021/07/24 05:06:27;;;;;;;24.98;15.58;;;;;;;19.27;72.92;100682.33;5048373;58;21187;-81
2021/07/24 05:11:34;;;;;;;31.65;16.12;;;;;;;19.39;73.15;100684.67;4962426;59;21205;-86
2021/07/24 05:16:40;;;;;;;22.82;15.28;;;;;;;19.49;73.12;100675.91;5071483;57;21183;-82
2021/07/24 05:21:45;;;;;;;20.95;15.10;;;;;;;19.58;73.18;100686.46;5081172;58;21223;-85
2021/07/24 05:26:51;;;;;;;21.30;14.38;;;;;;;19.63;73.23;100680.08;5121997;57;21186;-80
2021/07/24 05:31:57;;;;;;;20.02;15.15;;;;;;;19.71;73.34;100685.91;5141774;57;21198;-82
2021/07/24 05:37:03;;;;;;;21.95;15.65;;;;;;;19.83;73.21;100673.80;4998199;59;21164;-83
2021/07/24 05:42:09;;;;;;;26.23;17.37;;;;;;;19.99;73.38;100680.94;4998298;59;21232;-82
2021/07/24 05:47:14;;;;;;;23.45;15.93;;;;;;;20.14;73.34;100687.23;5085077;57;22047;-78
2021/07/24 05:52:21;;;;;;;24.87;15.93;;;;;;;20.26;73.38;100683.63;5080899;57;21184;-78
2021/07/24 05:57:26;;;;;;;24.35;15.08;;;;;;;20.35;73.28;100682.54;5085199;57;21708;-77
2021/07/24 06:02:32;;;;;;;22.73;13.53;;;;;;;20.46;73.12;100682.19;5147687;57;21989;-79
2021/07/24 06:07:38;;;;;;;26.57;14.98;;;;;;;20.56;72.92;100688.65;5149675;57;21215;-83
2021/07/24 06:12:48;;;;;;;23.32;16.07;;;;;;;20.61;72.63;100687.61;4943781;59;21187;-78
2021/07/24 06:17:54;;;;;;;24.82;15.98;;;;;;;20.68;72.72;100692.07;5009582;59;21179;-82
2021/07/24 06:23:00;;;;;;;24.25;14.18;;;;;;;20.74;72.36;100685.66;5009526;59;21210;-79
2021/07/24 06:28:05;;;;;;;26.37;14.70;;;;;;;20.80;72.68;100682.23;5013854;58;21681;-84
2021/07/24 06:33:11;;;;;;;24.20;15.00;;;;;;;20.91;72.47;100688.53;5076455;57;21201;-82
2021/07/24 06:38:17;;;;;;;22.95;15.53;;;;;;;21.04;72.29;100686.05;5005679;59;21180;-85
2021/07/24 06:43:23;;;;;;;21.70;15.25;;;;;;;21.18;72.16;100681.20;5013975;58;21195;-78
2021/07/24 06:48:29;;;;;;;23.47;16.10;;;;;;;21.29;71.86;100685.32;5070236;57;21106;-83
2021/07/24 06:53:36;;;;;;;20.57;14.25;;;;;;;21.43;71.51;100690.38;5079196;57;21194;-80
2021/07/24 06:58:41;;;;;;;23.10;15.45;;;;;;;21.59;71.02;100679.42;5012596;59;21119;-85
2021/07/24 07:03:47;;;;;;;23.30;14.13;;;;;;;21.71;70.58;100685.50;5014667;58;21194;-83
2021/07/24 07:08:53;;;;;;;20.97;12.43;;;;;;;21.84;70.63;100680.81;4916997;59;21140;-82
2021/07/24 07:13:58;;;;;;;19.90;12.93;;;;;;;22.10;70.22;100690.58;5046157;57;21157;-78
2021/07/24 07:19:06;;;;;;;18.23;13.10;;;;;;;22.34;69.30;100694.77;5068169;58;21181;-86
2021/07/24 07:24:11;;;;;;;36.77;13.45;;;;;;;22.50;68.07;100689.65;4966265;58;21504;-84
2021/07/24 07:29:17;;;;;;;17.70;11.43;;;;;;;22.63;67.71;100691.63;5041753;58;21185;-85
2021/07/24 07:34:23;;;;;;;18.02;12.68;;;;;;;22.78;67.70;100700.00;5093633;58;21169;-80
2021/07/24 07:39:28;;;;;;;17.20;11.95;;;;;;;22.96;66.99;100696.00;5094763;58;21111;-81
2021/07/24 07:44:34;;;;;;;14.73;12.28;;;;;;;23.15;65.91;100697.52;5165053;56;21154;-81
2021/07/24 07:49:40;;;;;;;14.83;12.05;;;;;;;23.27;65.46;100697.80;5163398;56;21099;-81
2021/07/24 07:54:48;;;;;;;16.60;10.65;;;;;;;23.46;65.05;100705.20;5170675;57;21146;-83
2021/07/24 07:59:54;;;;;;;13.88;9.80;;;;;;;23.60;63.66;100707.48;5091944;58;21119;-83
2021/07/24 08:05:01;;;;;;;12.65;8.80;;;;;;;23.78;61.78;100711.84;5086698;58;21177;-81
2021/07/24 08:10:07;;;;;;;10.90;9.05;;;;;;;23.94;62.00;100700.38;4990516;58;21230;-86
2021/07/24 08:15:13;;;;;;;13.13;10.32;;;;;;;24.11;60.90;100699.00;5027378;58;22277;-85
2021/07/24 08:20:19;;;;;;;14.00;10.30;;;;;;;24.26;60.66;100702.41;5043983;58;21165;-80
2021/07/24 08:25:25;;;;;;;14.05;10.00;;;;;;;24.40;60.42;100693.80;4959769;59;21205;-83
2021/07/24 08:30:32;;;;;;;16.73;10.63;;;;;;;24.59;59.94;100682.71;5048440;58;21188;-85
2021/07/24 08:35:38;;;;;;;12.15;9.38;;;;;;;24.77;59.94;100682.39;4985804;58;21164;-85
2021/07/24 08:40:48;;;;;;;10.60;8.23;;;;;;;24.97;59.16;100677.53;5013312;58;21466;-79
2021/07/24 08:45:58;;;;;;;18.67;8.83;;;;;;;25.12;58.29;100674.09;4915097;60;21177;-81
2021/07/24 08:51:06;;;;;;;12.30;7.70;;;;;;;25.33;57.42;100667.61;5037008;58;21160;-84
2021/07/24 08:56:17;;;;;;;14.43;7.87;;;;;;;25.47;55.30;100667.36;4955034;59;21173;-84
2021/07/24 09:01:23;;;;;;;15.38;7.40;;;;;;;25.55;54.44;100652.22;5029705;58;21189;-82
2021/07/24 09:06:31;;;;;;;10.25;7.80;;;;;;;25.56;53.54;100646.28;4914724;59;21200;-83
2021/07/24 09:11:38;;;;;;;8.88;7.33;;;;;;;25.52;53.43;100638.27;5000301;59;21216;-81
2021/07/24 09:16:46;;;;;;;15.30;7.33;;;;;;;25.60;53.48;100636.69;4924602;60;21543;-80
2021/07/24 09:21:51;;;;;;;13.05;6.70;;;;;;;25.77;52.68;100639.26;4927567;59;21239;-75
2021/07/24 09:26:57;;;;;;;10.93;8.05;;;;;;;25.92;53.03;100628.97;5080059;57;21169;-80
2021/07/24 09:32:05;;;;;;;14.25;8.28;;;;;;;26.00;52.08;100637.36;5002528;59;21153;-78
2021/07/24 09:37:30;;;;;;;8.75;7.22;;;;;;;26.00;51.58;100633.29;4967295;59;21644;-78
2021/07/24 09:42:37;;;;;;;9.85;7.50;;;;;;;25.93;51.24;100625.21;5010366;59;21170;-78
2021/07/24 09:47:42;;;;;;;11.93;6.80;;;;;;;25.89;51.33;100617.72;5030770;58;21209;-79
2021/07/24 09:52:50;;;;;;;9.95;7.65;;;;;;;25.97;51.86;100617.48;5086236;58;21222;-78
2021/07/24 09:57:58;;;;;;;17.77;7.97;;;;;;;25.98;51.09;100616.41;4992803;59;21152;-80
2021/07/24 10:03:08;;;;;;;9.68;7.33;;;;;;;25.96;51.22;100615.82;5105062;56;21502;-79
2021/07/24 10:08:17;;;;;;;14.10;7.72;;;;;;;25.95;51.31;100604.67;5153131;56;21439;-78
2021/07/24 10:13:24;;;;;;;19.17;7.95;;;;;;;25.86;51.40;100603.25;5143072;57;21218;-80
2021/07/24 10:18:30;;;;;;;15.35;8.35;;;;;;;25.82;51.06;100600.13;5050449;58;21098;-75
2021/07/24 10:23:36;;;;;;;16.87;7.72;;;;;;;25.80;51.86;100609.55;5019279;58;21114;-83
2021/07/24 10:29:01;;;;;;;10.60;7.67;;;;;;;25.82;52.33;100598.78;5021162;58;21176;-79
2021/07/24 10:34:09;;;;;;;20.95;7.72;;;;;;;25.86;52.89;100595.95;4998174;58;21200;-79
2021/07/24 10:39:21;;;;;;;17.00;7.78;;;;;;;26.14;53.65;100599.63;5000045;59;21184;-78
2021/07/24 10:44:41;;;;;;;16.90;7.75;;;;;;;26.21;51.72;100602.31;4998696;59;21184;-81
2021/07/24 10:49:51;;;;;;;15.80;8.03;;;;;;;26.17;50.91;100601.08;4998859;59;21583;-76
2021/07/24 10:55:12;;;;;;;12.63;7.78;;;;;;;26.16;49.92;100597.53;4996038;59;21222;-82
2021/07/24 11:00:24;;;;;;;16.07;8.60;;;;;;;26.14;50.09;100603.70;5074199;57;21809;-79
2021/07/24 11:05:30;;;;;;;15.48;9.83;;;;;;;26.06;50.31;100592.30;5081491;57;21113;-79
2021/07/24 11:10:36;;;;;;;28.77;19.52;;;;;;;26.02;50.25;100596.48;4967333;59;21226;-79
2021/07/24 11:15:48;;;;;;;10.80;8.03;;;;;;;26.02;50.94;100593.25;5073288;57;21157;-80
2021/07/24 11:20:55;;;;;;;13.45;7.55;;;;;;;26.10;50.60;100591.66;4933118;59;21171;-76
2021/07/24 11:26:05;;;;;;;15.98;9.83;;;;;;;26.14;49.85;100583.36;5043274;58;21492;-78
2021/07/24 11:31:11;;;;;;;10.58;7.42;;;;;;;26.16;50.04;100599.41;4952377;59;21195;-82
2021/07/24 11:36:17;;;;;;;10.70;7.25;;;;;;;26.27;49.14;100591.43;5005940;58;21201;-85
2021/07/24 11:41:28;;;;;;;11.60;6.85;;;;;;;26.63;49.36;100585.31;4940690;59;21219;-81
2021/07/24 11:46:33;;;;;;;16.73;7.42;;;;;;;26.86;48.29;100597.42;5012327;58;21160;-82
2021/07/24 11:51:39;;;;;;;8.60;6.95;;;;;;;26.98;48.44;100588.88;4923867;59;21210;-76
2021/07/24 11:56:48;;;;;;;15.72;7.67;;;;;;;26.89;47.66;100587.45;5038182;58;21164;-80
2021/07/24 12:01:54;;;;;;;18.17;7.47;;;;;;;26.72;47.72;100585.04;4931440;59;21204;-79
2021/07/24 12:07:02;;;;;;;13.20;9.05;;;;;;;26.65;48.03;100580.19;5026540;58;21216;-80
2021/07/24 12:12:09;;;;;;;10.40;7.42;;;;;;;26.60;48.55;100583.03;4980650;59;21107;-82
2021/07/24 12:17:16;;;;;;;19.25;9.20;;;;;;;26.61;48.15;100575.72;5030901;58;21175;-81
2021/07/24 12:22:26;;;;;;;11.85;9.18;;;;;;;26.66;47.98;100575.90;5085078;57;21945;-79
2021/07/24 12:27:32;;;;;;;9.08;8.25;;;;;;;26.77;48.05;100572.44;5134126;57;21588;-83
2021/07/24 12:32:42;;;;;;;18.40;9.20;;;;;;;26.92;48.01;100576.16;5134474;57;21170;-78
2021/07/24 12:37:48;;;;;;;11.95;8.08;;;;;;;26.98;47.65;100571.76;4993677;59;21625;-80
2021/07/24 12:42:54;;;;;;;8.70;7.83;;;;;;;26.99;48.01;100567.47;4997660;59;21819;-77
2021/07/24 12:48:22;;;;;;;15.50;6.80;;;;;;;27.02;47.54;100559.40;4997592;59;21184;-82
2021/07/24 12:53:31;;;;;;;7.90;6.97;;;;;;;27.04;47.41;100551.30;4759644;61;21219;-77
2021/07/24 12:58:38;;;;;;;12.65;8.80;;;;;;;27.06;47.68;100547.84;4837909;61;21207;-76
2021/07/24 13:03:45;;;;;;;13.80;8.65;;;;;;;27.12;47.63;100549.66;4768282;62;21290;-78
2021/07/24 13:08:50;;;;;;;10.48;6.70;;;;;;;27.16;47.35;100545.98;4743246;61;21215;-81
2021/07/24 13:13:56;;;;;;;6.25;5.65;;;;;;;27.19;46.09;100549.05;4687797;62;21253;-80
2021/07/24 13:19:02;;;;;;;9.13;6.50;;;;;;;27.18;44.87;100541.98;4680706;62;21183;-80
2021/07/24 13:24:09;;;;;;;10.82;5.85;;;;;;;27.23;44.02;100548.06;4678060;62;21286;-88
2021/07/24 13:29:15;;;;;;;9.23;5.83;;;;;;;27.38;44.82;100547.67;4919839;58;21169;-82
2021/07/24 13:34:20;;;;;;;13.80;6.35;;;;;;;27.68;45.13;100545.01;4948405;59;21664;-84
2021/07/24 13:39:26;;;;;;;9.03;6.87;;;;;;;27.95;43.77;100547.67;5011480;58;21178;-85
2021/07/24 13:44:32;;;;;;;7.75;6.35;;;;;;;28.15;41.93;100547.34;4921599;59;21572;-86
2021/07/24 13:49:38;;;;;;;8.73;6.65;;;;;;;28.33;42.11;100550.84;5020401;58;21181;-88
2021/07/24 13:54:43;;;;;;;8.93;6.92;;;;;;;28.53;42.15;100546.95;4973080;59;21444;-87
2021/07/24 13:59:49;;;;;;;12.47;7.15;;;;;;;28.70;41.84;100549.27;5036884;58;21470;-88
2021/07/24 14:04:54;;;;;;;7.17;6.58;;;;;;;28.83;40.88;100549.05;4968689;59;21123;-89
2021/07/24 14:10:04;;;;;;;14.75;7.50;;;;;;;28.94;41.40;100551.46;5005138;58;21191;-89
2021/07/24 14:15:10;;;;;;;8.65;6.45;;;;;;;29.00;40.63;100551.88;5002797;59;21184;-88
2021/07/24 14:20:16;;;;;;;8.63;6.95;;;;;;;29.00;41.13;100551.88;4925351;59;21232;-86
2021/07/24 14:25:22;;;;;;;7.90;6.50;;;;;;;29.09;41.09;100557.77;5004243;59;21219;-88
2021/07/24 14:30:27;;;;;;;8.03;6.35;;;;;;;29.09;40.98;100551.80;5009092;59;21177;-91
2021/07/24 14:35:35;;;;;;;20.20;5.83;;;;;;;29.10;40.38;100553.45;5013372;59;21527;-92
2021/07/24 14:40:41;;;;;;;10.50;6.47;;;;;;;29.02;40.20;100546.50;4924314;59;21576;-89
2021/07/24 14:45:46;;;;;;;15.65;6.72;;;;;;;28.89;39.95;100548.08;4932124;59;21219;-87
2021/07/24 14:50:53;;;;;;;7.15;6.33;;;;;;;28.68;40.11;100535.89;5078262;57;21833;-88
2021/07/24 14:55:59;;;;;;;13.70;7.08;;;;;;;28.71;40.84;100530.52;5076488;57;21213;-87
2021/07/24 15:01:04;;;;;;;8.33;6.25;;;;;;;28.71;39.85;100529.16;5003149;59;21233;-88
2021/07/24 15:06:13;;;;;;;11.05;6.05;;;;;;;28.75;40.17;100525.41;4929795;59;21190;-88
2021/07/24 15:11:19;;;;;;;10.85;7.22;;;;;;;28.79;40.33;100523.37;5105833;57;22093;-88
2021/07/24 15:16:25;;;;;;;14.10;6.70;;;;;;;28.80;39.81;100522.30;5141798;57;21190;-88
2021/07/24 15:21:31;;;;;;;7.05;6.40;;;;;;;28.73;39.92;100520.19;5141838;57;21173;-88
2021/07/24 15:26:36;;;;;;;9.33;6.12;;;;;;;28.68;40.57;100512.77;5148688;57;21169;-87
2021/07/24 15:31:42;;;;;;;7.17;6.35;;;;;;;28.69;40.90;100511.70;5133038;57;21158;-86
2021/07/24 15:36:48;;;;;;;8.10;7.10;;;;;;;28.71;40.85;100507.38;5143177;57;21146;-87
2021/07/24 15:41:54;;;;;;;18.62;7.35;;;;;;;28.67;40.32;100502.94;5136170;57;21171;-87
2021/07/24 15:47:00;;;;;;;11.53;6.85;;;;;;;28.63;40.30;100499.56;4993022;59;21638;-86
2021/07/24 15:52:06;;;;;;;14.68;7.90;;;;;;;28.61;40.16;100507.13;4996037;59;21624;-86
2021/07/24 15:57:12;;;;;;;11.68;7.00;;;;;;;28.60;39.24;100501.39;4993033;59;21186;-87
2021/07/24 16:02:18;;;;;;;9.35;6.90;;;;;;;28.53;39.65;100498.81;4976300;59;21562;-89
2021/07/24 16:07:23;;;;;;;7.37;6.67;;;;;;;28.44;40.10;100499.38;5126909;57;21181;-90
2021/07/24 16:12:29;;;;;;;9.25;5.62;;;;;;;28.37;40.48;100496.80;5097421;57;21166;-86
2021/07/24 16:17:35;;;;;;;11.35;8.88;;;;;;;28.35;40.67;100488.87;5070416;57;21111;-87
2021/07/24 16:22:41;;;;;;;11.40;7.40;;;;;;;28.37;41.15;100491.36;5002492;59;21184;-88
2021/07/24 16:27:46;;;;;;;9.93;7.20;;;;;;;28.40;40.09;100487.34;5010271;59;21212;-89
2021/07/24 16:32:52;;;;;;;18.20;7.35;;;;;;;28.38;40.93;100486.21;5029491;58;21224;-88
2021/07/24 16:37:58;;;;;;;14.78;7.28;;;;;;;28.42;40.79;100475.66;5018604;58;21215;-89
2021/07/24 16:43:04;;;;;;;15.85;7.28;;;;;;;28.39;40.85;100472.91;5028892;58;21176;-87
2021/07/24 16:48:09;;;;;;;7.95;6.47;;;;;;;28.39;40.73;100477.52;5044499;58;21216;-87
2021/07/24 16:53:15;;;;;;;10.93;7.12;;;;;;;28.33;40.72;100473.84;5013363;59;22209;-89
2021/07/24 16:58:20;;;;;;;11.28;6.62;;;;;;;28.29;40.84;100476.73;5085062;58;21204;-87
2021/07/24 17:03:26;;;;;;;11.38;6.60;;;;;;;28.23;40.62;100469.00;5001863;59;21219;-86
2021/07/24 17:08:32;;;;;;;13.13;7.22;;;;;;;28.14;40.32;100467.64;5010323;59;21123;-92
2021/07/24 17:13:38;;;;;;;13.32;7.25;;;;;;;28.06;40.66;100463.92;5059804;58;21641;-89
2021/07/24 17:18:45;;;;;;;13.70;7.67;;;;;;;27.99;40.88;100467.27;4941582;59;21176;-88
2021/07/24 17:23:50;;;;;;;12.70;7.63;;;;;;;27.89;41.29;100461.06;4932945;59;21190;-90
2021/07/24 17:28:55;;;;;;;16.82;7.40;;;;;;;27.82;41.70;100458.97;4885287;59;21256;-87
2021/07/24 17:34:06;;;;;;;18.60;7.95;;;;;;;27.76;41.90;100463.17;4963928;58;21449;-87
2021/07/24 17:39:10;;;;;;;16.77;6.97;;;;;;;27.71;42.16;100460.31;5015684;57;21413;-88
2021/07/24 17:44:16;;;;;;;9.73;7.60;;;;;;;27.59;42.31;100463.00;4968358;58;21666;-87
2021/07/24 17:49:22;;;;;;;24.98;8.50;;;;;;;27.51;42.64;100461.39;5016770;58;21180;-87
2021/07/24 17:54:28;;;;;;;26.82;8.58;;;;;;;27.44;42.91;100464.75;4885080;59;21229;-87
2021/07/24 17:59:34;;;;;;;14.80;7.90;;;;;;;27.35;43.23;100459.88;5006474;58;21165;-86
2021/07/24 18:04:39;;;;;;;20.00;8.65;;;;;;;27.25;43.49;100469.92;4884006;59;21208;-90
2021/07/24 18:09:45;;;;;;;19.05;9.48;;;;;;;27.16;43.77;100472.66;4995472;58;21614;-87
2021/07/24 18:14:51;;;;;;;19.80;8.53;;;;;;;27.07;43.81;100476.73;4959305;59;21181;-89
2021/07/24 18:19:56;;;;;;;19.82;8.60;;;;;;;26.95;44.24;100478.86;4948191;59;21181;-88
2021/07/24 18:25:03;;;;;;;28.02;8.45;;;;;;;26.85;44.51;100469.56;4929177;59;21181;-88
2021/07/24 18:30:10;;;;;;;20.35;9.23;;;;;;;26.76;44.64;100469.55;4888771;60;21206;-89
2021/07/24 18:35:15;;;;;;;21.70;9.18;;;;;;;26.65;44.83;100467.06;4962788;59;22116;-87
2021/07/24 18:40:21;;;;;;;11.45;8.70;;;;;;;26.54;45.13;100468.65;4961039;58;21189;-90
2021/07/24 18:45:27;;;;;;;24.50;8.70;;;;;;;26.41;45.81;100463.89;5089715;57;22152;-89
2021/07/24 18:50:33;;;;;;;16.40;9.10;;;;;;;26.24;46.21;100468.49;4977185;58;21182;-87
2021/07/24 18:55:38;;;;;;;16.87;8.45;;;;;;;26.12;46.11;100482.47;5048707;57;21171;-89
2021/07/24 19:00:43;;;;;;;17.95;8.50;;;;;;;26.02;46.36;100477.23;4943409;58;21201;-86
2021/07/24 19:05:49;;;;;;;13.18;8.50;;;;;;;25.84;46.75;100470.69;5039642;57;21169;-86
2021/07/24 19:10:55;;;;;;;25.30;8.30;;;;;;;25.63;47.47;100470.23;4934617;58;21185;-85
2021/07/24 19:16:00;;;;;;;17.82;8.95;;;;;;;25.41;47.86;100469.17;5018799;57;21172;-86
2021/07/24 19:21:06;;;;;;;25.30;7.90;;;;;;;25.20;48.60;100473.05;4960016;58;21142;-87
2021/07/24 19:26:12;;;;;;;19.23;8.30;;;;;;;25.02;48.98;100487.80;5075296;57;21165;-84
2021/07/24 19:31:18;;;;;;;16.73;8.25;;;;;;;24.90;49.16;100487.58;4984194;58;21229;-81
2021/07/24 19:36:25;;;;;;;23.65;7.97;;;;;;;24.84;49.41;100474.09;5063609;57;21188;-83
2021/07/24 19:41:31;;;;;;;26.90;8.35;;;;;;;24.74;49.74;100482.66;4959386;58;21185;-82
2021/07/24 19:46:37;;;;;;;15.88;8.38;;;;;;;24.63;50.04;100490.05;5022294;57;21172;-85
2021/07/24 19:51:43;;;;;;;14.53;9.25;;;;;;;24.59;50.21;100492.05;4911954;59;21224;-84
2021/07/24 19:56:48;;;;;;;19.65;8.60;;;;;;;24.50;50.36;100484.15;5006025;58;21162;-84
2021/07/24 20:01:56;;;;;;;18.45;9.15;;;;;;;24.46;50.51;100488.30;4987087;58;21203;-86
2021/07/24 20:07:01;;;;;;;27.60;9.35;;;;;;;24.45;50.58;100491.22;4996852;58;21189;-87
2021/07/24 20:12:07;;;;;;;14.73;8.68;;;;;;;24.37;50.67;100491.45;5074768;57;21168;-86
2021/07/24 20:17:13;;;;;;;10.90;8.25;;;;;;;24.27;51.04;100491.88;4977228;58;21665;-86
2021/07/24 20:22:19;;;;;;;9.15;8.10;;;;;;;24.16;51.34;100493.81;5065190;57;21169;-84
2021/07/24 20:27:25;;;;;;;12.90;8.65;;;;;;;24.00;51.61;100499.10;4926948;59;21233;-88
2021/07/24 20:32:30;;;;;;;13.10;7.87;;;;;;;23.91;52.01;100494.12;4923394;60;21169;-86
2021/07/24 20:37:37;;;;;;;11.60;8.35;;;;;;;23.87;52.36;100499.09;4979295;58;21495;-82
2021/07/24 20:42:43;;;;;;;14.83;9.20;;;;;;;23.79;52.41;100504.70;4958622;58;21169;-83
2021/07/24 20:47:49;;;;;;;17.75;8.73;;;;;;;23.71;52.65;100508.42;4940552;58;21225;-85
2021/07/24 20:52:55;;;;;;;20.45;8.43;;;;;;;23.61;53.04;100507.16;4983927;58;21504;-84
2021/07/24 20:58:01;;;;;;;13.68;8.88;;;;;;;23.52;53.28;100507.04;5015970;58;21176;-83
2021/07/24 21:03:07;;;;;;;13.78;9.18;;;;;;;23.35;53.59;100501.14;4898458;59;21623;-83
2021/07/24 21:08:13;;;;;;;12.18;9.15;;;;;;;23.17;54.14;100504.91;4997532;58;21168;-84
2021/07/24 21:13:18;;;;;;;14.68;8.95;;;;;;;23.05;54.47;100507.34;5003574;58;21197;-84
2021/07/24 21:18:24;;;;;;;21.12;10.25;;;;;;;22.95;54.86;100510.91;5011737;58;21615;-82
2021/07/24 21:23:30;;;;;;;16.87;9.85;;;;;;;22.81;55.19;100508.66;4850649;60;21125;-82
2021/07/24 21:28:36;;;;;;;11.68;9.43;;;;;;;22.73;55.44;100506.94;4957273;59;21173;-84
2021/07/24 21:33:42;;;;;;;19.12;10.30;;;;;;;22.64;55.77;100505.92;4956150;59;21195;-84
2021/07/24 21:38:48;;;;;;;12.68;9.33;;;;;;;22.55;56.17;100515.20;4950116;59;21222;-82
2021/07/24 21:43:54;;;;;;;10.32;8.83;;;;;;;22.39;56.66;100498.82;4959902;59;21237;-82
2021/07/24 21:49:00;;;;;;;19.12;10.13;;;;;;;22.25;56.86;100502.44;4989528;58;22117;-84
2021/07/24 21:54:05;;;;;;;19.75;9.98;;;;;;;22.15;57.18;100501.95;4985307;58;21161;-83
2021/07/24 21:59:11;;;;;;;16.35;10.72;;;;;;;22.16;57.29;100506.29;4858583;60;21520;-82
2021/07/24 22:04:20;;;;;;;15.40;9.55;;;;;;;22.20;57.42;100509.75;4837915;60;21204;-81
2021/07/24 22:09:24;;;;;;;15.58;10.55;;;;;;;22.23;57.26;100515.27;4962690;59;21169;-83
2021/07/24 22:14:29;;;;;;;22.87;11.25;;;;;;;22.30;57.34;100524.26;4998933;59;22135;-82
2021/07/24 22:19:35;;;;;;;15.98;9.53;;;;;;;22.36;57.45;100531.55;5000647;59;21651;-85
2021/07/24 22:24:41;;;;;;;11.12;9.43;;;;;;;22.35;57.20;100529.88;5045138;57;21089;-85
2021/07/24 22:29:46;;;;;;;17.95;9.38;;;;;;;22.32;57.40;100524.36;4888521;59;21224;-84
2021/07/24 22:34:52;;;;;;;14.53;9.30;;;;;;;22.27;57.21;100538.11;4902572;59;21686;-83
2021/07/24 22:39:58;;;;;;;11.18;9.68;;;;;;;22.17;57.58;100538.94;4902911;59;21180;-83
2021/07/24 22:45:04;;;;;;;17.73;9.65;;;;;;;22.08;57.77;100536.39;4885182;59;21209;-83
2021/07/24 22:50:11;;;;;;;14.30;9.23;;;;;;;22.05;57.94;100546.71;5037674;57;21189;-83
2021/07/24 22:55:17;;;;;;;19.07;9.30;;;;;;;21.96;58.11;100539.77;4901784;59;21196;-82
2021/07/24 23:00:23;;;;;;;16.45;9.50;;;;;;;21.78;58.16;100549.63;5018934;58;21183;-83
2021/07/24 23:05:31;;;;;;;17.27;9.25;;;;;;;21.65;58.48;100545.45;4938404;59;21225;-82
2021/07/24 23:10:38;;;;;;;21.33;9.08;;;;;;;21.53;58.86;100537.05;5056225;57;21158;-85
2021/07/24 23:15:43;;;;;;;10.50;9.33;;;;;;;21.43;58.96;100541.87;5139126;57;21162;-84
2021/07/24 23:20:50;;;;;;;15.65;9.58;;;;;;;21.45;59.23;100544.38;4998192;59;21593;-83
2021/07/24 23:25:56;;;;;;;17.07;10.00;;;;;;;21.46;59.16;100535.28;4992878;59;21198;-85
2021/07/24 23:31:02;;;;;;;14.50;9.65;;;;;;;21.33;59.03;100528.73;5137419;57;21163;-84